Time;durP1;ratioP1;P1;durP2;ratioP2;P2;SDS_P1;SDS_P2;PMS_P1;PMS_P2;Temp;Humidity;BMP_temperature;BMP_pressure;BME280_temperature;BME280_humidity;BME280_pressure;Samples;Min_cycle;Max_cycle;Signal;HPM_P1;HPM_P2
2021/11/04 00:00:07;;;;;;;19.53;16.83;;;5.70;96.30;;;;;;4998200;28;20410;-81
2021/11/04 00:02:32;;;;;;;19.47;16.07;;;5.60;96.30;;;;;;4997691;28;20463;-82
2021/11/04 00:04:58;;;;;;;17.37;14.80;;;5.60;96.30;;;;;;5015944;28;20916;-82
2021/11/04 00:07:25;;;;;;;19.00;17.00;;;5.60;96.30;;;;;;5016110;28;20208;-82
2021/11/04 00:09:51;;;;;;;18.43;16.07;;;5.60;96.30;;;;;;5015796;28;20196;-82
2021/11/04 00:12:17;;;;;;;18.17;15.97;;;5.50;96.30;;;;;;4997698;28;20431;-82
2021/11/04 00:14:43;;;;;;;19.80;16.50;;;5.50;96.30;;;;;;4998376;28;20542;-82
2021/11/04 00:17:09;;;;;;;19.73;16.27;;;5.40;96.30;;;;;;4998125;28;20416;-82
2021/11/04 00:19:34;;;;;;;20.87;17.27;;;5.40;96.30;;;;;;5016082;28;20177;-82
2021/11/04 00:22:00;;;;;;;23.27;17.93;;;5.40;96.30;;;;;;4997547;28;20189;-81
2021/11/04 00:24:26;;;;;;;19.77;16.97;;;5.20;96.30;;;;;;5015664;28;20173;-82
2021/11/04 00:26:52;;;;;;;20.53;16.60;;;5.10;96.30;;;;;;4997897;28;20542;-82
2021/11/04 00:29:17;;;;;;;17.87;15.37;;;5.00;96.30;;;;;;5035219;28;20464;-82
2021/11/04 00:31:43;;;;;;;20.30;15.17;;;4.80;96.30;;;;;;5034762;28;20195;-82
2021/11/04 00:34:08;;;;;;;16.03;14.43;;;4.70;96.30;;;;;;5017437;28;20323;-81
2021/11/04 00:36:34;;;;;;;19.80;15.20;;;4.60;96.30;;;;;;5017435;28;20208;-83
2021/11/04 00:38:59;;;;;;;16.90;15.10;;;4.50;96.30;;;;;;5017410;28;20250;-82
2021/11/04 00:41:25;;;;;;;18.37;15.37;;;4.60;96.30;;;;;;5016743;28;20676;-83
2021/11/04 00:43:51;;;;;;;21.77;17.20;;;4.60;96.30;;;;;;5035182;28;20180;-82
2021/11/04 00:46:16;;;;;;;18.13;15.93;;;4.70;96.30;;;;;;5017169;28;20187;-82
2021/11/04 00:48:42;;;;;;;20.13;16.67;;;4.70;96.30;;;;;;5016985;28;20180;-82
2021/11/04 00:51:09;;;;;;;18.13;16.20;;;4.80;96.30;;;;;;5016457;28;20211;-82
2021/11/04 00:53:35;;;;;;;19.63;15.50;;;4.80;96.30;;;;;;5017169;28;20264;-81
2021/11/04 00:56:01;;;;;;;14.07;12.37;;;4.80;96.30;;;;;;5016881;28;20466;-82
2021/11/04 00:58:27;;;;;;;17.73;14.33;;;4.70;96.30;;;;;;5034967;28;20421;-82
2021/11/04 05:00:53;;;;;;;24.37;19.37;;;5.70;96.30;;;;;;5824916;23;20497;-80
2021/11/04 05:03:19;;;;;;;21.73;19.50;;;5.70;96.30;;;;;;4974596;28;20480;-78
2021/11/04 05:05:44;;;;;;;20.70;18.67;;;5.70;96.30;;;;;;4957835;28;20241;-77
2021/11/04 05:08:10;;;;;;;21.30;18.97;;;5.70;96.30;;;;;;4975167;28;20181;-76
2021/11/04 05:10:35;;;;;;;20.83;18.63;;;5.70;96.30;;;;;;4957590;28;20234;-77
2021/11/04 05:13:01;;;;;;;24.67;21.07;;;5.80;96.30;;;;;;4975035;28;20174;-77
2021/11/04 05:15:27;;;;;;;20.57;18.47;;;5.80;96.30;;;;;;4963799;28;20666;-79
2021/11/04 05:17:52;;;;;;;22.40;20.07;;;5.80;96.30;;;;;;4974549;28;20234;-78
2021/11/04 05:20:18;;;;;;;22.43;19.57;;;5.80;96.30;;;;;;4969790;28;20187;-81
2021/11/04 05:22:43;;;;;;;22.37;20.00;;;5.80;96.30;;;;;;4938096;29;20206;-77
2021/11/04 05:25:09;;;;;;;25.50;19.47;;;5.70;96.30;;;;;;4937691;29;20218;-79
2021/11/04 05:27:34;;;;;;;27.80;19.47;;;5.70;96.30;;;;;;4955017;29;20175;-76
2021/11/04 05:30:00;;;;;;;21.30;18.97;;;5.70;96.30;;;;;;4955305;28;20183;-77
2021/11/04 05:32:26;;;;;;;26.07;18.50;;;5.60;96.30;;;;;;4954620;29;20195;-77
2021/11/04 05:34:52;;;;;;;20.80;18.60;;;5.70;96.30;;;;;;4937870;29;20206;-79
2021/11/04 05:37:17;;;;;;;24.57;19.40;;;5.60;96.30;;;;;;4941010;28;20561;-79
2021/11/04 05:39:43;;;;;;;24.33;19.73;;;5.60;96.30;;;;;;4957654;28;20413;-77
2021/11/04 05:42:09;;;;;;;21.73;18.70;;;5.60;96.30;;;;;;4973102;28;20869;-78
2021/11/04 05:44:35;;;;;;;21.97;18.90;;;5.60;96.30;;;;;;4974714;28;20178;-77
2021/11/04 05:47:02;;;;;;;21.60;19.30;;;5.60;96.30;;;;;;4957398;28;20305;-78
2021/11/04 05:49:28;;;;;;;22.53;19.50;;;5.50;96.30;;;;;;4975005;28;20842;-80
2021/11/04 05:51:53;;;;;;;20.23;18.00;;;5.50;96.30;;;;;;4974767;28;20444;-78
2021/11/04 05:54:19;;;;;;;23.30;20.83;;;5.50;96.30;;;;;;4975467;28;20182;-77
2021/11/04 05:56:45;;;;;;;23.67;20.77;;;5.50;96.30;;;;;;4982578;28;20237;-78
2021/11/04 05:59:10;;;;;;;23.30;19.57;;;5.50;96.30;;;;;;4974467;28;20190;-79
2021/11/04 06:01:36;;;;;;;22.50;20.10;;;5.40;96.30;;;;;;4973825;28;20678;-77
2021/11/04 06:04:01;;;;;;;24.47;20.87;;;5.40;96.30;;;;;;4973973;28;20607;-78
2021/11/04 06:06:26;;;;;;;25.67;20.93;;;5.40;96.30;;;;;;4974242;28;20553;-78
2021/11/04 06:08:52;;;;;;;21.80;19.50;;;5.40;96.30;;;;;;4973980;28;20265;-77
2021/11/04 06:11:17;;;;;;;22.83;20.03;;;5.40;96.30;;;;;;4973355;28;20220;-79
2021/11/04 06:13:43;;;;;;;24.50;20.23;;;5.40;96.30;;;;;;4974003;28;20186;-78
2021/11/04 06:16:13;;;;;;;25.07;22.03;;;5.40;96.30;;;;;;4956532;28;20292;-79
2021/11/04 06:18:39;;;;;;;24.10;21.13;;;5.40;96.30;;;;;;4956011;28;20185;-78
2021/11/04 06:21:05;;;;;;;27.67;21.83;;;5.40;96.30;;;;;;4955835;28;20437;-78
2021/11/04 06:23:30;;;;;;;22.57;20.03;;;5.40;96.30;;;;;;4956216;28;20248;-78
2021/11/04 06:25:56;;;;;;;25.40;21.23;;;5.40;96.30;;;;;;4973776;28;20186;-78
2021/11/04 06:28:21;;;;;;;24.33;20.93;;;5.30;96.30;;;;;;4973469;28;20174;-77
2021/11/04 06:30:47;;;;;;;21.33;19.03;;;5.40;96.30;;;;;;4973385;28;20205;-78
2021/11/04 06:33:12;;;;;;;27.37;20.13;;;5.40;96.30;;;;;;4972812;28;20187;-76
2021/11/04 06:35:38;;;;;;;19.43;17.40;;;5.40;96.30;;;;;;4970202;28;20216;-77
2021/11/04 06:38:03;;;;;;;19.03;17.03;;;5.40;96.30;;;;;;4955732;28;20178;-76
2021/11/04 06:40:29;;;;;;;21.63;18.93;;;5.40;96.30;;;;;;4955969;28;20213;-78
2021/11/04 06:42:54;;;;;;;19.73;17.67;;;5.40;96.30;;;;;;4972807;28;20178;-76
2021/11/04 06:45:20;;;;;;;18.60;16.60;;;5.40;96.30;;;;;;4973183;28;20185;-77
2021/11/04 06:47:49;;;;;;;19.47;16.53;;;5.40;96.30;;;;;;4973201;28;20233;-78
2021/11/04 06:50:17;;;;;;;20.47;17.53;;;5.30;96.30;;;;;;4973221;28;20174;-78
2021/11/04 06:52:59;;;;;;;20.37;16.70;;;5.30;96.30;;;;;;4972688;28;20826;-77
2021/11/04 06:55:26;;;;;;;23.63;16.47;;;5.30;96.30;;;;;;4945765;28;20480;-75
2021/11/04 06:58:00;;;;;;;19.80;14.97;;;5.30;96.30;;;;;;4972904;28;20416;-78
2021/11/04 07:00:26;;;;;;;18.70;16.20;;;5.30;96.30;;;;;;4972884;28;20460;-76
2021/11/04 07:02:54;;;;;;;16.90;14.57;;;5.30;96.30;;;;;;4971990;28;20418;-76
2021/11/04 07:05:20;;;;;;;20.57;14.87;;;5.30;96.30;;;;;;4955722;28;20425;-76
2021/11/04 07:07:52;;;;;;;16.63;14.93;;;5.30;96.30;;;;;;4973129;28;20784;-78
2021/11/04 07:10:20;;;;;;;17.80;15.90;;;5.30;96.30;;;;;;4972950;28;20427;-76
2021/11/04 07:12:47;;;;;;;16.93;14.30;;;5.30;96.30;;;;;;4969801;28;20496;-76
2021/11/04 07:15:15;;;;;;;15.87;13.47;;;5.30;96.30;;;;;;4953829;28;20466;-75
2021/11/04 07:17:43;;;;;;;15.23;13.60;;;5.30;96.30;;;;;;4953156;29;20414;-76
2021/11/04 07:20:10;;;;;;;15.20;12.00;;;5.30;96.30;;;;;;4953822;28;20416;-78
2021/11/04 07:22:48;;;;;;;13.60;10.90;;;5.40;96.30;;;;;;4953081;29;20476;-76
2021/11/04 07:25:16;;;;;;;10.17;9.00;;;5.30;96.30;;;;;;4936379;29;20422;-75
2021/11/04 07:28:07;;;;;;;11.10;9.33;;;5.30;96.30;;;;;;4936501;29;20486;-77
2021/11/04 07:30:33;;;;;;;10.03;8.43;;;5.30;96.30;;;;;;4953531;29;20403;-75
2021/11/04 07:33:01;;;;;;;10.10;8.00;;;5.40;96.30;;;;;;4935907;29;20437;-76
2021/11/04 07:35:29;;;;;;;8.77;7.93;;;5.40;96.30;;;;;;4936215;29;20458;-77
2021/11/04 07:37:56;;;;;;;8.43;7.50;;;5.30;96.30;;;;;;4953574;29;20509;-77
2021/11/04 07:40:23;;;;;;;7.40;6.63;;;5.40;96.30;;;;;;4953244;29;20423;-76
2021/11/04 07:42:49;;;;;;;9.00;7.20;;;5.30;96.30;;;;;;4952899;29;20457;-75
2021/11/04 07:45:15;;;;;;;7.20;6.50;;;5.40;96.30;;;;;;4953684;28;20426;-76
2021/11/04 07:47:43;;;;;;;8.47;6.40;;;5.40;96.30;;;;;;4953768;29;20403;-75
2021/11/04 07:50:11;;;;;;;6.90;6.20;;;5.40;96.30;;;;;;4953453;29;20191;-75
2021/11/04 07:52:40;;;;;;;7.70;6.73;;;5.40;96.30;;;;;;4952647;29;20427;-75
2021/11/04 07:55:07;;;;;;;10.60;5.93;;;5.30;96.30;;;;;;4936221;29;20454;-77
2021/11/04 07:57:33;;;;;;;7.33;6.40;;;5.30;96.30;;;;;;4945513;28;20421;-76
2021/11/04 08:00:03;;;;;;;6.20;5.60;;;5.30;96.30;;;;;;4955494;28;20472;-76
2021/11/04 08:02:28;;;;;;;12.80;5.50;;;5.30;96.30;;;;;;4954614;28;20457;-76
2021/11/04 08:04:54;;;;;;;6.43;5.17;;;5.30;96.30;;;;;;4955461;28;20421;-78
2021/11/04 08:07:19;;;;;;;4.93;4.53;;;5.30;96.30;;;;;;4955501;28;20186;-76
2021/11/04 08:09:45;;;;;;;5.60;4.20;;;5.30;96.30;;;;;;4972731;28;20206;-79
2021/11/04 08:12:11;;;;;;;6.73;4.30;;;5.30;96.30;;;;;;4957715;28;20209;-78
2021/11/04 08:14:36;;;;;;;4.70;4.20;;;5.30;96.30;;;;;;4976142;28;20171;-78
2021/11/04 08:17:02;;;;;;;3.97;3.57;;;5.30;96.30;;;;;;4958913;28;20206;-76
2021/11/04 08:19:28;;;;;;;6.13;3.67;;;5.30;96.30;;;;;;4958809;28;20282;-75
2021/11/04 08:21:53;;;;;;;5.03;3.00;;;5.30;96.30;;;;;;4958255;28;20445;-77
2021/11/04 08:24:19;;;;;;;3.40;3.10;;;5.20;96.30;;;;;;4976592;28;20178;-80
2021/11/04 08:26:44;;;;;;;3.50;3.20;;;5.20;96.30;;;;;;4958991;28;20249;-78
2021/11/04 08:29:10;;;;;;;3.87;3.57;;;5.20;96.30;;;;;;4976476;28;20182;-79
2021/11/04 08:31:35;;;;;;;2.87;2.67;;;5.20;96.30;;;;;;4958365;28;20204;-80
2021/11/04 08:34:01;;;;;;;3.23;2.93;;;5.20;96.30;;;;;;4976326;28;20266;-80
2021/11/04 08:36:26;;;;;;;3.20;2.90;;;5.20;96.30;;;;;;4940974;29;20237;-80
2021/11/04 08:38:52;;;;;;;3.07;2.70;;;5.10;96.30;;;;;;4940138;29;20614;-80
2021/11/04 08:41:17;;;;;;;3.13;2.67;;;5.10;96.30;;;;;;4957158;28;20463;-80
2021/11/04 08:43:43;;;;;;;3.40;2.90;;;5.20;96.30;;;;;;4957751;28;20166;-78
2021/11/04 08:46:09;;;;;;;3.43;2.70;;;5.20;96.30;;;;;;4957359;29;20239;-80
2021/11/04 08:48:35;;;;;;;3.07;2.77;;;5.20;96.30;;;;;;4957567;29;20665;-79
2021/11/04 08:51:02;;;;;;;4.33;3.00;;;5.20;96.30;;;;;;4956274;29;20222;-80
2021/11/04 08:53:28;;;;;;;3.00;2.70;;;5.20;96.30;;;;;;4956326;28;20422;-78
2021/11/04 08:55:53;;;;;;;3.77;3.20;;;5.10;96.30;;;;;;4956132;29;20989;-78
2021/11/04 08:58:19;;;;;;;2.83;2.63;;;5.10;96.30;;;;;;4938807;29;20239;-79
2021/11/04 09:00:44;;;;;;;3.70;3.30;;;5.00;96.30;;;;;;4956176;28;20202;-79
2021/11/04 09:03:11;;;;;;;3.20;2.90;;;5.00;96.30;;;;;;4939108;28;20600;-79
2021/11/04 09:05:38;;;;;;;2.67;2.47;;;5.00;96.30;;;;;;4961936;28;20266;-79
2021/11/04 09:08:06;;;;;;;4.93;3.00;;;4.90;96.30;;;;;;4967883;28;20418;-77
2021/11/04 09:10:31;;;;;;;3.00;2.70;;;4.90;96.30;;;;;;4967148;28;20922;-79
2021/11/04 09:12:57;;;;;;;2.90;2.43;;;4.90;96.30;;;;;;4964895;28;20426;-80
2021/11/04 09:15:22;;;;;;;2.70;2.50;;;4.90;96.30;;;;;;4963528;28;20195;-79
2021/11/04 09:17:48;;;;;;;1.87;1.70;;;4.80;96.30;;;;;;4967890;28;20193;-79
2021/11/04 09:20:16;;;;;;;3.23;2.00;;;4.70;96.30;;;;;;4965380;28;20179;-80
2021/11/04 09:22:46;;;;;;;2.27;2.07;;;4.70;96.30;;;;;;4956927;28;20529;-80
2021/11/04 09:25:12;;;;;;;2.37;1.80;;;4.70;96.30;;;;;;4975139;28;20763;-80
2021/11/04 09:27:38;;;;;;;2.20;1.83;;;4.60;96.30;;;;;;4951731;28;20426;-80
2021/11/04 09:30:04;;;;;;;2.03;1.83;;;4.60;96.30;;;;;;4946019;28;20432;-80
2021/11/04 09:32:30;;;;;;;3.13;1.50;;;4.50;96.30;;;;;;4972037;28;20202;-80
2021/11/04 09:34:56;;;;;;;1.97;1.77;;;4.50;96.30;;;;;;4957407;28;20425;-80
2021/11/04 09:37:21;;;;;;;2.90;2.00;;;4.50;96.30;;;;;;4957160;28;20186;-80
2021/11/04 09:39:50;;;;;;;1.83;1.20;;;4.50;96.30;;;;;;4957588;28;20472;-79
2021/11/04 09:42:17;;;;;;;2.03;1.60;;;4.50;96.30;;;;;;4956772;28;20194;-80
2021/11/04 09:44:45;;;;;;;1.40;1.30;;;4.40;96.30;;;;;;4957298;28;20514;-78
2021/11/04 09:47:10;;;;;;;9.37;1.80;;;4.50;96.30;;;;;;4957424;28;20417;-80
2021/11/04 09:49:36;;;;;;;1.57;1.40;;;4.50;96.30;;;;;;4957457;28;20944;-80
2021/11/04 09:52:02;;;;;;;1.80;1.70;;;4.40;96.30;;;;;;4974255;28;20744;-80
2021/11/04 09:54:27;;;;;;;1.63;1.37;;;4.40;96.30;;;;;;4957418;28;20191;-79
2021/11/04 09:56:53;;;;;;;1.80;1.70;;;4.40;96.30;;;;;;4974612;28;20768;-80
2021/11/04 09:59:19;;;;;;;1.77;1.47;;;4.40;96.30;;;;;;4957695;28;20273;-80
2021/11/04 10:01:50;;;;;;;2.27;1.40;;;4.40;96.30;;;;;;4973678;28;20209;-79
2021/11/04 10:04:33;;;;;;;1.70;1.60;;;4.40;96.30;;;;;;4974568;28;20465;-80
2021/11/04 10:06:58;;;;;;;2.23;1.20;;;4.40;96.30;;;;;;4974330;28;20409;-79
2021/11/04 10:09:28;;;;;;;2.30;2.10;;;4.40;96.30;;;;;;4951393;28;20513;-78
2021/11/04 10:11:54;;;;;;;1.87;1.70;;;4.40;96.30;;;;;;4943641;28;20206;-79
2021/11/04 10:14:20;;;;;;;1.67;1.57;;;4.40;96.30;;;;;;4956898;28;20419;-79
2021/11/04 10:16:46;;;;;;;3.63;1.70;;;4.50;96.30;;;;;;4974083;28;21081;-79
2021/11/04 10:19:15;;;;;;;1.70;1.60;;;4.50;96.30;;;;;;4956788;28;20517;-79
2021/11/04 10:21:50;;;;;;;1.97;1.73;;;4.50;96.30;;;;;;4955410;28;20198;-78
2021/11/04 10:24:21;;;;;;;1.70;1.50;;;4.50;96.30;;;;;;4956814;28;20445;-80
2021/11/04 10:26:55;;;;;;;2.83;1.57;;;4.40;96.30;;;;;;4956487;28;20421;-79
2021/11/04 10:29:23;;;;;;;1.80;1.60;;;4.40;96.30;;;;;;4954400;29;20418;-79
2021/11/04 10:31:52;;;;;;;3.07;1.30;;;4.40;96.30;;;;;;4937293;29;20438;-80
2021/11/04 10:34:30;;;;;;;2.17;1.37;;;4.40;96.30;;;;;;4937799;29;20497;-79
2021/11/04 10:37:11;;;;;;;2.70;1.30;;;4.40;96.30;;;;;;4937353;29;20465;-79
2021/11/04 10:39:38;;;;;;;1.57;1.20;;;4.40;96.30;;;;;;4937724;29;20473;-80
2021/11/04 10:42:04;;;;;;;1.40;1.00;;;4.40;96.30;;;;;;4954123;28;20430;-79
2021/11/04 10:44:31;;;;;;;1.30;1.20;;;4.40;96.30;;;;;;4937155;29;20474;-79
2021/11/04 10:46:57;;;;;;;1.27;0.90;;;4.40;96.30;;;;;;4936893;29;20189;-80
2021/11/04 10:49:27;;;;;;;1.30;0.90;;;4.40;96.30;;;;;;4954293;28;20419;-80
2021/11/04 10:52:02;;;;;;;1.13;1.00;;;4.30;96.30;;;;;;4954602;28;20790;-79
2021/11/04 10:54:41;;;;;;;5.27;1.60;;;4.30;96.30;;;;;;4937811;29;20429;-80
2021/11/04 10:57:07;;;;;;;1.30;1.20;;;4.30;96.30;;;;;;4954334;29;20941;-79
2021/11/04 10:59:43;;;;;;;1.80;1.17;;;4.30;96.30;;;;;;4955240;29;20421;-79
2021/11/04 11:02:09;;;;;;;1.90;1.10;;;4.40;96.30;;;;;;4953527;29;20214;-80
2021/11/04 11:04:34;;;;;;;1.83;1.00;;;4.30;96.30;;;;;;4953963;29;20411;-81
2021/11/04 11:07:00;;;;;;;1.30;1.20;;;4.20;96.30;;;;;;4937755;29;20186;-81
2021/11/04 11:09:29;;;;;;;1.67;0.90;;;4.20;96.30;;;;;;4936283;29;20253;-78
2021/11/04 11:12:00;;;;;;;1.10;1.00;;;4.20;96.30;;;;;;4953156;28;20203;-79
2021/11/04 11:14:27;;;;;;;1.27;1.00;;;4.20;96.30;;;;;;4954090;29;20419;-77
2021/11/04 11:16:57;;;;;;;1.57;0.93;;;4.30;96.30;;;;;;4936678;29;20529;-78
2021/11/04 11:19:28;;;;;;;2.03;1.10;;;4.20;96.30;;;;;;4954703;29;20434;-77
2021/11/04 11:27:13;;;;;;;1.43;1.00;;;4.20;96.30;;;;;;5588106;23;20496;-78
2021/11/04 11:29:40;;;;;;;1.17;0.70;;;4.20;96.30;;;;;;5012115;28;20879;-79
2021/11/04 11:32:27;;;;;;;1.70;0.80;;;4.20;96.30;;;;;;4978166;28;20447;-77
2021/11/04 11:35:19;;;;;;;2.50;0.90;;;4.20;96.30;;;;;;5011232;28;20801;-78
2021/11/04 11:38:03;;;;;;;1.00;0.70;;;4.30;96.30;;;;;;5011135;28;20400;-77
2021/11/04 11:40:31;;;;;;;1.10;0.60;;;4.30;96.30;;;;;;4996249;28;20490;-78
2021/11/04 11:43:03;;;;;;;1.33;0.90;;;4.30;96.30;;;;;;4990511;28;20417;-77
2021/11/04 11:45:57;;;;;;;0.90;0.60;;;4.30;96.30;;;;;;4994578;28;20499;-78
2021/11/04 11:48:24;;;;;;;1.53;0.70;;;4.40;96.30;;;;;;4995925;28;20432;-77
2021/11/04 11:50:52;;;;;;;1.10;0.77;;;4.40;96.30;;;;;;4978591;28;20445;-80
2021/11/04 11:53:25;;;;;;;0.90;0.60;;;4.40;96.30;;;;;;4977963;28;20421;-78
2021/11/04 11:55:58;;;;;;;0.90;0.70;;;4.50;96.30;;;;;;4996047;28;20511;-80
2021/11/04 11:58:37;;;;;;;1.23;0.70;;;4.50;96.30;;;;;;4978662;28;20431;-78
2021/11/04 12:01:13;;;;;;;1.73;0.70;;;4.50;96.30;;;;;;4995381;28;20503;-78
2021/11/04 12:03:39;;;;;;;1.57;0.60;;;4.50;96.30;;;;;;4995970;28;20951;-77
2021/11/04 12:06:11;;;;;;;0.90;0.50;;;4.40;96.30;;;;;;4995933;28;20421;-77
2021/11/04 12:08:45;;;;;;;0.87;0.50;;;4.40;96.30;;;;;;4959193;28;20432;-78
2021/11/04 12:11:33;;;;;;;1.20;0.60;;;4.40;96.30;;;;;;4975835;28;20460;-77
2021/11/04 12:14:19;;;;;;;1.00;0.50;;;4.30;96.30;;;;;;4975943;28;20477;-79
2021/11/04 12:17:00;;;;;;;0.90;0.50;;;4.30;96.30;;;;;;4958825;28;20449;-79
2021/11/04 12:19:46;;;;;;;0.83;0.50;;;4.30;96.30;;;;;;4976112;28;20442;-79
2021/11/04 12:22:25;;;;;;;1.10;0.60;;;4.30;96.30;;;;;;4958547;28;20437;-79
2021/11/04 12:24:59;;;;;;;0.80;0.50;;;4.20;96.30;;;;;;4958898;28;20779;-78
2021/11/04 12:27:29;;;;;;;0.90;0.50;;;4.20;96.30;;;;;;4975968;28;20417;-79
2021/11/04 12:29:56;;;;;;;1.30;0.87;;;4.20;96.30;;;;;;4958744;28;20422;-78
2021/11/04 12:32:25;;;;;;;0.90;0.67;;;4.20;96.30;;;;;;4958197;28;20488;-79
2021/11/04 12:35:09;;;;;;;1.00;0.60;;;4.30;96.30;;;;;;4975945;28;20438;-80
2021/11/04 12:37:35;;;;;;;1.00;0.50;;;4.20;96.30;;;;;;4975995;28;20402;-78
2021/11/04 12:40:06;;;;;;;0.90;0.57;;;4.20;96.30;;;;;;4958448;28;20424;-79
2021/11/04 12:42:31;;;;;;;0.80;0.47;;;4.20;96.30;;;;;;4958174;28;20537;-78
2021/11/04 12:44:57;;;;;;;0.90;0.53;;;4.20;96.30;;;;;;4986525;28;20496;-79
2021/11/04 12:47:25;;;;;;;0.87;0.60;;;4.10;96.30;;;;;;4966879;28;20178;-80
2021/11/04 12:49:53;;;;;;;0.80;0.60;;;4.10;96.30;;;;;;4975373;28;20179;-80
2021/11/04 12:52:19;;;;;;;0.90;0.60;;;4.20;96.30;;;;;;4975082;28;20457;-77
2021/11/04 12:54:51;;;;;;;0.80;0.50;;;4.20;96.30;;;;;;4975386;28;20401;-79
2021/11/04 12:57:19;;;;;;;0.90;0.60;;;4.20;96.30;;;;;;4980583;28;20440;-77
2021/11/04 12:59:59;;;;;;;0.80;0.50;;;4.20;96.30;;;;;;4994940;28;20490;-78
2021/11/04 13:02:28;;;;;;;0.80;0.40;;;4.20;96.30;;;;;;4994401;28;20766;-77
2021/11/04 13:05:01;;;;;;;1.00;0.60;;;4.20;96.30;;;;;;4977248;28;20476;-79
2021/11/04 13:07:37;;;;;;;0.80;0.50;;;4.20;96.30;;;;;;4957946;28;20421;-77
2021/11/04 13:10:07;;;;;;;0.90;0.60;;;4.30;96.30;;;;;;4957919;28;20425;-77
2021/11/04 13:12:42;;;;;;;1.83;0.50;;;4.30;96.30;;;;;;4974583;28;20808;-78
2021/11/04 13:15:13;;;;;;;0.80;0.50;;;4.30;96.30;;;;;;4971621;28;20503;-78
2021/11/04 13:17:38;;;;;;;0.80;0.50;;;4.30;96.30;;;;;;4994410;28;20404;-79
2021/11/04 13:20:35;;;;;;;0.80;0.50;;;4.40;96.30;;;;;;4994500;28;20405;-78
2021/11/04 13:23:03;;;;;;;0.90;0.60;;;4.40;96.30;;;;;;4975750;28;20556;-77
2021/11/04 13:25:32;;;;;;;1.00;0.60;;;4.40;96.30;;;;;;4994140;28;20421;-79
2021/11/04 13:28:06;;;;;;;1.10;0.60;;;4.40;96.30;;;;;;4976790;28;21170;-78
2021/11/04 13:30:36;;;;;;;1.00;0.63;;;4.30;96.30;;;;;;4977319;28;20464;-77
2021/11/04 13:33:03;;;;;;;0.87;0.60;;;4.30;96.30;;;;;;4993625;28;20413;-77
2021/11/04 13:35:35;;;;;;;0.80;0.53;;;4.40;96.30;;;;;;4976750;28;20460;-79
2021/11/04 13:38:09;;;;;;;0.80;0.57;;;4.40;96.30;;;;;;4979257;28;20422;-78
2021/11/04 13:40:40;;;;;;;0.90;0.60;;;4.40;96.30;;;;;;4974895;28;20425;-78
2021/11/04 13:43:06;;;;;;;0.90;0.60;;;4.30;96.30;;;;;;4974180;28;20874;-77
2021/11/04 13:45:31;;;;;;;1.17;0.40;;;4.20;96.30;;;;;;4957209;28;20569;-78
2021/11/04 13:48:00;;;;;;;0.90;0.50;;;4.30;96.30;;;;;;4960671;28;20209;-79
2021/11/04 13:50:45;;;;;;;0.80;0.50;;;4.20;96.30;;;;;;4976388;28;20182;-77
2021/11/04 13:53:12;;;;;;;1.03;0.77;;;4.30;96.30;;;;;;4975926;28;20417;-77
2021/11/04 13:55:38;;;;;;;0.80;0.53;;;4.30;96.30;;;;;;4968587;28;20457;-78
2021/11/04 13:58:03;;;;;;;1.50;0.67;;;4.30;96.30;;;;;;4974110;28;20492;-78
2021/11/04 14:00:32;;;;;;;1.20;0.60;;;4.30;96.30;;;;;;4987209;28;20193;-81
2021/11/04 14:03:07;;;;;;;1.30;0.63;;;4.30;96.30;;;;;;4966395;28;20184;-80
2021/11/04 14:05:59;;;;;;;0.90;0.50;;;4.30;96.30;;;;;;4969391;28;20916;-81
2021/11/04 14:08:41;;;;;;;1.00;0.57;;;4.30;96.30;;;;;;4978436;28;20424;-81
2021/11/04 14:11:25;;;;;;;0.87;0.60;;;4.30;96.30;;;;;;4989614;28;20433;-81
2021/11/04 14:13:55;;;;;;;1.10;0.50;;;4.30;96.30;;;;;;4976674;28;20409;-81
2021/11/04 14:16:31;;;;;;;1.00;0.53;;;4.30;96.30;;;;;;4976385;28;20456;-81
2021/11/04 14:18:59;;;;;;;0.93;0.50;;;4.30;96.30;;;;;;4976724;28;20428;-80
2021/11/04 14:21:26;;;;;;;0.90;0.50;;;4.30;96.30;;;;;;4972632;28;20594;-81
2021/11/04 14:23:54;;;;;;;0.87;0.53;;;4.40;96.30;;;;;;4973746;28;20418;-79
2021/11/04 14:26:20;;;;;;;0.90;0.60;;;4.40;96.30;;;;;;4973537;28;20499;-80
2021/11/04 14:28:47;;;;;;;1.10;0.60;;;4.40;96.30;;;;;;4974528;28;20425;-80
2021/11/04 14:31:14;;;;;;;0.80;0.50;;;4.40;96.30;;;;;;4956536;28;20441;-79
2021/11/04 14:33:40;;;;;;;2.37;0.60;;;4.40;96.30;;;;;;4956946;28;20981;-80
2021/11/04 14:36:06;;;;;;;4.80;0.60;;;4.40;96.30;;;;;;4975267;28;20567;-76
2021/11/04 14:38:32;;;;;;;1.03;0.50;;;4.40;96.30;;;;;;4973983;28;20182;-77
2021/11/04 14:40:57;;;;;;;0.80;0.50;;;4.40;96.30;;;;;;4955887;28;20434;-77
2021/11/04 14:43:26;;;;;;;1.20;0.57;;;4.30;96.30;;;;;;4956288;28;20626;-77
2021/11/04 14:45:54;;;;;;;2.60;1.57;;;4.30;96.30;;;;;;4956312;28;20248;-77
2021/11/04 14:48:19;;;;;;;1.50;0.90;;;4.30;96.30;;;;;;4973529;28;20913;-78
2021/11/04 14:50:45;;;;;;;0.90;0.60;;;4.30;96.30;;;;;;4956188;28;20444;-80
2021/11/04 14:53:11;;;;;;;0.93;0.57;;;4.30;96.30;;;;;;4955713;28;20181;-82
2021/11/04 14:55:37;;;;;;;1.17;0.60;;;4.30;96.30;;;;;;4961628;28;20275;-79
2021/11/04 14:58:02;;;;;;;0.80;0.50;;;4.30;96.30;;;;;;4965770;28;20237;-80
2021/11/04 15:00:28;;;;;;;0.90;0.50;;;4.30;96.30;;;;;;4989399;28;20678;-80
2021/11/04 15:02:53;;;;;;;0.87;0.50;;;4.20;96.30;;;;;;4975337;28;20637;-80
2021/11/04 15:05:19;;;;;;;0.80;0.50;;;4.30;96.30;;;;;;4985885;28;20696;-80
2021/11/04 15:07:44;;;;;;;2.00;0.60;;;4.30;96.30;;;;;;4958911;28;20180;-79
2021/11/04 15:10:10;;;;;;;1.17;0.50;;;4.30;96.30;;;;;;4992716;28;20249;-80
2021/11/04 15:12:35;;;;;;;0.80;0.50;;;4.30;96.30;;;;;;4971749;28;20662;-80
2021/11/04 15:15:02;;;;;;;1.07;0.60;;;4.40;96.30;;;;;;4956820;28;20583;-79
2021/11/04 15:17:27;;;;;;;0.90;0.50;;;4.40;96.30;;;;;;4956645;28;20217;-78
2021/11/04 15:19:53;;;;;;;0.80;0.50;;;4.40;96.30;;;;;;4975915;28;20420;-79
2021/11/04 15:22:18;;;;;;;0.80;0.50;;;4.40;96.30;;;;;;4979321;28;20185;-78
2021/11/04 15:24:44;;;;;;;0.90;0.60;;;4.40;96.30;;;;;;4979959;28;20572;-79
2021/11/04 15:27:09;;;;;;;0.90;0.60;;;4.40;96.30;;;;;;4979787;28;20197;-80
2021/11/04 15:29:35;;;;;;;1.50;0.73;;;4.40;96.30;;;;;;4980405;28;20174;-80
2021/11/04 15:32:00;;;;;;;1.73;0.60;;;4.40;96.30;;;;;;4975892;28;20276;-79
2021/11/04 15:34:26;;;;;;;3.47;0.60;;;4.40;96.30;;;;;;4978536;28;20233;-81
2021/11/04 15:36:51;;;;;;;1.63;0.50;;;4.40;96.30;;;;;;4978865;28;20201;-80
2021/11/04 15:39:18;;;;;;;0.80;0.50;;;4.40;96.30;;;;;;4973488;28;20638;-79
2021/11/04 15:41:43;;;;;;;0.90;0.60;;;4.40;96.30;;;;;;4998208;28;20197;-81
2021/11/04 15:44:12;;;;;;;1.77;0.87;;;4.40;96.30;;;;;;4999583;28;20408;-80
2021/11/04 15:46:39;;;;;;;0.90;0.60;;;4.30;96.30;;;;;;4981661;28;20228;-81
2021/11/04 15:49:04;;;;;;;1.10;0.77;;;4.30;96.30;;;;;;4984082;28;20780;-81
2021/11/04 15:51:30;;;;;;;0.90;0.60;;;4.30;96.30;;;;;;4982338;28;20447;-81
2021/11/04 15:53:56;;;;;;;1.07;0.60;;;4.20;96.30;;;;;;4982722;28;20189;-81
2021/11/04 15:56:22;;;;;;;0.90;0.50;;;4.20;96.30;;;;;;4983348;28;20202;-83
2021/11/04 15:58:47;;;;;;;0.80;0.60;;;4.20;96.30;;;;;;5001146;28;20189;-82
2021/11/04 16:01:13;;;;;;;1.00;0.60;;;4.20;96.30;;;;;;4983284;28;20325;-83
2021/11/04 16:03:38;;;;;;;1.10;0.70;;;4.20;96.30;;;;;;4980771;28;20177;-79
2021/11/04 16:06:04;;;;;;;1.20;0.60;;;4.20;96.30;;;;;;4998108;28;20176;-79
2021/11/04 16:08:29;;;;;;;0.97;0.70;;;4.20;96.30;;;;;;4980089;28;20272;-80
2021/11/04 16:10:55;;;;;;;1.10;0.70;;;4.10;96.30;;;;;;4980758;28;20573;-79
2021/11/04 16:13:20;;;;;;;1.00;0.60;;;4.20;96.30;;;;;;4998005;28;20178;-79
2021/11/04 16:15:46;;;;;;;1.27;0.60;;;4.10;96.30;;;;;;4979181;28;20206;-80
2021/11/04 16:18:12;;;;;;;1.77;0.63;;;4.10;96.30;;;;;;4996178;28;20176;-80
2021/11/04 16:20:38;;;;;;;1.00;0.80;;;4.10;96.30;;;;;;4978940;28;20232;-79
2021/11/04 16:23:04;;;;;;;1.20;0.80;;;4.10;96.30;;;;;;4977735;28;20194;-80
2021/11/04 16:25:29;;;;;;;1.20;0.67;;;4.00;96.30;;;;;;4995524;28;20491;-78
2021/11/04 16:27:55;;;;;;;1.10;0.67;;;4.00;96.30;;;;;;4974395;28;20289;-79
2021/11/04 16:30:21;;;;;;;0.90;0.53;;;4.00;96.30;;;;;;4958634;28;20179;-80
2021/11/04 16:32:47;;;;;;;0.80;0.40;;;4.00;96.30;;;;;;4974796;28;20174;-80
2021/11/04 16:35:12;;;;;;;2.50;0.50;;;4.00;96.30;;;;;;4975450;28;20253;-78
2021/11/04 16:37:38;;;;;;;0.80;0.50;;;4.10;96.30;;;;;;4992409;28;20188;-79
2021/11/04 16:40:05;;;;;;;1.20;0.87;;;4.10;96.30;;;;;;4977923;28;20257;-79
2021/11/04 16:42:31;;;;;;;0.90;0.50;;;4.10;96.30;;;;;;4977124;28;20193;-79
2021/11/04 16:44:57;;;;;;;1.10;0.70;;;4.10;96.30;;;;;;4995224;28;20503;-79
2021/11/04 16:47:22;;;;;;;1.10;0.70;;;4.20;96.30;;;;;;4977745;28;20179;-80
2021/11/04 16:49:48;;;;;;;1.10;0.70;;;4.20;96.30;;;;;;4982298;28;20189;-80
2021/11/04 16:52:15;;;;;;;1.77;0.60;;;4.20;96.30;;;;;;4977001;28;20197;-81
2021/11/04 16:54:41;;;;;;;1.97;0.60;;;4.20;96.30;;;;;;4977724;28;20413;-80
2021/11/04 16:57:07;;;;;;;0.97;0.80;;;4.30;96.30;;;;;;4967376;28;20546;-80
2021/11/04 16:59:32;;;;;;;1.00;0.70;;;4.30;96.30;;;;;;4958392;28;20418;-80